This is the latest recevied weather packets stored in our database for station/object YO8SSH-13. If no packets are shown the sender has not sent any weather packets the latest 10 day(s).
| Time | Temp. | Humidity | Pressure | Rain* | Wind** | Luminosity | Snow |
|---|---|---|---|---|---|---|---|
| 1777735513 | 15° C | 42% | 1020 hPa | 0 mm | - | - | - |
| 1777734614 | 14.44° C | 42% | 1020 hPa | 0 mm | - | - | - |
| 1777733718 | 15° C | 42% | 1020 hPa | 0 mm | - | - | - |
| 1777732821 | 15.56° C | 41% | 1020 hPa | 0 mm | - | - | - |
| 1777731921 | 15.56° C | 41% | 1020 hPa | 0 mm | - | - | - |
| 1777731024 | 15.56° C | 41% | 1020 hPa | 0 mm | - | - | - |
| 1777730126 | 16.11° C | 40% | 1020 hPa | 0 mm | - | - | - |
| 1777729228 | 16.11° C | 39% | 1020 hPa | 0 mm | - | - | - |
| 1777728331 | 16.67° C | 39% | 1020 hPa | 0 mm | - | - | - |
| 1777727433 | 16.11° C | 40% | 1020 hPa | 0 mm | - | - | - |
| 1777726538 | 15.56° C | 42% | 1021 hPa | 0 mm | - | - | - |
| 1777725638 | 16.11° C | 41% | 1021 hPa | 0 mm | - | - | - |
| 1777724742 | 16.11° C | 42% | 1021 hPa | 0 mm | - | - | - |
| 1777723841 | 15.56° C | 43% | 1021 hPa | 0 mm | - | - | - |
| 1777722954 | 14.44° C | 44% | 1021 hPa | 0 mm | - | - | - |
| 1777722045 | 15° C | 44% | 1021 hPa | 0 mm | - | - | - |
| 1777721148 | 15° C | 45% | 1021 hPa | 0 mm | - | - | - |
| 1777720250 | 15° C | 46% | 1021 hPa | 0 mm | - | - | - |
| 1777719352 | 13.33° C | 49% | 1021 hPa | 0 mm | - | - | - |
| 1777718455 | 13.33° C | 47% | 1021 hPa | 0 mm | - | - | - |
| 1777717557 | 14.44° C | 47% | 1021 hPa | 0 mm | - | - | - |
| 1777716659 | 14.44° C | 49% | 1021 hPa | 0 mm | - | - | - |
| 1777715762 | 13.33° C | 49% | 1021 hPa | 0 mm | - | - | - |
| 1777714865 | 14.44° C | 48% | 1022 hPa | 0 mm | - | - | - |
| 1777713966 | 15° C | 49% | 1022 hPa | 0 mm | - | - | - |
* Rain latest hour (hover to see other rain measurements)
** Current wind speed in m/s (hover to see current wind gust speed)